sensor_id;sensor_type;location;lat;lon;timestamp;temperature;humidity
10051;DHT22;5065;46.942;7.432;2022-12-18T00:01:16;2.00;99.90
10051;DHT22;5065;46.942;7.432;2022-12-18T00:03:44;2.00;99.90
10051;DHT22;5065;46.942;7.432;2022-12-18T00:06:11;2.00;99.90
10051;DHT22;5065;46.942;7.432;2022-12-18T00:08:39;2.00;99.90
10051;DHT22;5065;46.942;7.432;2022-12-18T00:11:08;2.00;99.90
10051;DHT22;5065;46.942;7.432;2022-12-18T00:13:37;2.00;99.90
10051;DHT22;5065;46.942;7.432;2022-12-18T00:16:07;2.00;99.90
10051;DHT22;5065;46.942;7.432;2022-12-18T00:18:34;1.90;99.90
10051;DHT22;5065;46.942;7.432;2022-12-18T00:21:04;2.00;99.90
10051;DHT22;5065;46.942;7.432;2022-12-18T00:23:32;2.00;99.90
10051;DHT22;5065;46.942;7.432;2022-12-18T00:26:00;1.90;99.90
10051;DHT22;5065;46.942;7.432;2022-12-18T00:28:28;2.00;99.90
10051;DHT22;5065;46.942;7.432;2022-12-18T00:31:01;1.90;99.90
10051;DHT22;5065;46.942;7.432;2022-12-18T00:33:29;1.90;99.90
10051;DHT22;5065;46.942;7.432;2022-12-18T00:36:00;1.90;99.90
10051;DHT22;5065;46.942;7.432;2022-12-18T00:38:27;1.90;99.90
10051;DHT22;5065;46.942;7.432;2022-12-18T00:40:55;1.80;99.90
10051;DHT22;5065;46.942;7.432;2022-12-18T00:43:22;1.80;99.90
10051;DHT22;5065;46.942;7.432;2022-12-18T00:45:48;1.80;99.90
10051;DHT22;5065;46.942;7.432;2022-12-18T00:48:17;1.80;99.90
10051;DHT22;5065;46.942;7.432;2022-12-18T00:50:44;1.80;99.90
10051;DHT22;5065;46.942;7.432;2022-12-18T00:53:12;1.90;99.90
10051;DHT22;5065;46.942;7.432;2022-12-18T00:55:39;1.90;99.90
10051;DHT22;5065;46.942;7.432;2022-12-18T00:58:07;1.90;99.90
10051;DHT22;5065;46.942;7.432;2022-12-18T01:00:34;1.80;99.90
10051;DHT22;5065;46.942;7.432;2022-12-18T01:03:01;1.80;99.90
10051;DHT22;5065;46.942;7.432;2022-12-18T01:05:30;1.80;99.90
10051;DHT22;5065;46.942;7.432;2022-12-18T01:07:58;1.80;99.90
10051;DHT22;5065;46.942;7.432;2022-12-18T01:10:26;1.80;99.90
10051;DHT22;5065;46.942;7.432;2022-12-18T01:12:53;1.80;99.90
10051;DHT22;5065;46.942;7.432;2022-12-18T01:15:20;1.80;99.90
10051;DHT22;5065;46.942;7.432;2022-12-18T01:17:47;1.80;99.90
10051;DHT22;5065;46.942;7.432;2022-12-18T01:20:14;1.90;99.90
10051;DHT22;5065;46.942;7.432;2022-12-18T01:22:43;1.90;99.90
10051;DHT22;5065;46.942;7.432;2022-12-18T01:25:10;1.80;99.90
10051;DHT22;5065;46.942;7.432;2022-12-18T01:27:37;1.80;99.90
10051;DHT22;5065;46.942;7.432;2022-12-18T01:30:05;1.80;99.90
10051;DHT22;5065;46.942;7.432;2022-12-18T01:32:32;1.80;99.90
10051;DHT22;5065;46.942;7.432;2022-12-18T01:35:00;1.80;99.90
10051;DHT22;5065;46.942;7.432;2022-12-18T01:37:27;1.80;99.90
10051;DHT22;5065;46.942;7.432;2022-12-18T01:39:55;1.80;99.90
10051;DHT22;5065;46.942;7.432;2022-12-18T01:42:22;1.70;99.90
10051;DHT22;5065;46.942;7.432;2022-12-18T01:44:58;1.70;99.90
10051;DHT22;5065;46.942;7.432;2022-12-18T01:47:29;1.70;99.90
10051;DHT22;5065;46.942;7.432;2022-12-18T01:49:58;1.70;99.90
10051;DHT22;5065;46.942;7.432;2022-12-18T01:52:28;1.70;99.90
10051;DHT22;5065;46.942;7.432;2022-12-18T01:54:57;1.80;99.90
10051;DHT22;5065;46.942;7.432;2022-12-18T01:57:25;1.80;99.90
10051;DHT22;5065;46.942;7.432;2022-12-18T01:59:59;1.80;99.90
10051;DHT22;5065;46.942;7.432;2022-12-18T02:02:28;1.80;99.90
10051;DHT22;5065;46.942;7.432;2022-12-18T02:04:55;1.80;99.90
10051;DHT22;5065;46.942;7.432;2022-12-18T02:07:28;1.80;99.90
10051;DHT22;5065;46.942;7.432;2022-12-18T02:10:03;1.70;99.90
10051;DHT22;5065;46.942;7.432;2022-12-18T02:12:38;1.70;99.90
10051;DHT22;5065;46.942;7.432;2022-12-18T02:15:11;1.80;99.90
10051;DHT22;5065;46.942;7.432;2022-12-18T02:17:43;1.80;99.90
10051;DHT22;5065;46.942;7.432;2022-12-18T02:20:16;1.80;99.90
10051;DHT22;5065;46.942;7.432;2022-12-18T02:22:54;1.80;99.90
10051;DHT22;5065;46.942;7.432;2022-12-18T02:28:34;1.70;99.90
10051;DHT22;5065;46.942;7.432;2022-12-18T02:31:04;1.70;99.90
10051;DHT22;5065;46.942;7.432;2022-12-18T02:33:34;1.70;99.90
10051;DHT22;5065;46.942;7.432;2022-12-18T02:38:44;1.80;99.90
10051;DHT22;5065;46.942;7.432;2022-12-18T02:41:13;1.70;99.90
10051;DHT22;5065;46.942;7.432;2022-12-18T02:43:52;1.70;99.90
10051;DHT22;5065;46.942;7.432;2022-12-18T02:46:27;1.70;99.90
10051;DHT22;5065;46.942;7.432;2022-12-18T02:49:01;1.70;99.90
10051;DHT22;5065;46.942;7.432;2022-12-18T02:51:31;1.80;99.90
10051;DHT22;5065;46.942;7.432;2022-12-18T02:54:05;1.80;99.90
10051;DHT22;5065;46.942;7.432;2022-12-18T02:56:37;1.70;99.90
10051;DHT22;5065;46.942;7.432;2022-12-18T02:59:11;1.70;99.90
10051;DHT22;5065;46.942;7.432;2022-12-18T03:01:45;1.70;99.90
10051;DHT22;5065;46.942;7.432;2022-12-18T03:04:18;1.70;99.90
10051;DHT22;5065;46.942;7.432;2022-12-18T03:06:49;1.70;99.90
10051;DHT22;5065;46.942;7.432;2022-12-18T03:09:21;1.60;99.90
10051;DHT22;5065;46.942;7.432;2022-12-18T03:11:54;1.70;99.90
10051;DHT22;5065;46.942;7.432;2022-12-18T03:14:42;1.70;99.90
10051;DHT22;5065;46.942;7.432;2022-12-18T03:17:14;1.70;99.90
10051;DHT22;5065;46.942;7.432;2022-12-18T03:19:45;1.60;99.90
10051;DHT22;5065;46.942;7.432;2022-12-18T03:22:16;1.60;99.90
10051;DHT22;5065;46.942;7.432;2022-12-18T03:24:45;1.60;99.90
10051;DHT22;5065;46.942;7.432;2022-12-18T03:27:14;1.60;99.90
10051;DHT22;5065;46.942;7.432;2022-12-18T03:29:48;1.60;99.90
10051;DHT22;5065;46.942;7.432;2022-12-18T03:32:19;1.60;99.90
10051;DHT22;5065;46.942;7.432;2022-12-18T03:34:49;1.60;99.90
10051;DHT22;5065;46.942;7.432;2022-12-18T03:37:17;1.50;99.90
10051;DHT22;5065;46.942;7.432;2022-12-18T03:39:44;1.50;99.90
10051;DHT22;5065;46.942;7.432;2022-12-18T03:42:16;1.50;99.90
10051;DHT22;5065;46.942;7.432;2022-12-18T03:44:54;1.40;99.90
10051;DHT22;5065;46.942;7.432;2022-12-18T03:47:26;1.40;99.90
10051;DHT22;5065;46.942;7.432;2022-12-18T03:49:59;1.30;99.90
10051;DHT22;5065;46.942;7.432;2022-12-18T03:52:34;1.30;99.90
10051;DHT22;5065;46.942;7.432;2022-12-18T03:55:04;1.20;99.90
10051;DHT22;5065;46.942;7.432;2022-12-18T03:57:32;1.20;99.90
10051;DHT22;5065;46.942;7.432;2022-12-18T04:00:06;1.20;99.90
10051;DHT22;5065;46.942;7.432;2022-12-18T04:02:35;1.10;99.90
10051;DHT22;5065;46.942;7.432;2022-12-18T04:05:05;1.20;99.90
10051;DHT22;5065;46.942;7.432;2022-12-18T04:07:33;1.10;99.90
10051;DHT22;5065;46.942;7.432;2022-12-18T04:10:02;1.10;99.90
10051;DHT22;5065;46.942;7.432;2022-12-18T04:12:30;1.00;99.90
10051;DHT22;5065;46.942;7.432;2022-12-18T04:14:57;1.00;99.90
10051;DHT22;5065;46.942;7.432;2022-12-18T04:17:26;1.00;99.90
10051;DHT22;5065;46.942;7.432;2022-12-18T04:19:53;1.00;99.90
10051;DHT22;5065;46.942;7.432;2022-12-18T04:22:22;1.00;99.90
10051;DHT22;5065;46.942;7.432;2022-12-18T04:24:49;1.00;99.90
10051;DHT22;5065;46.942;7.432;2022-12-18T04:27:17;1.10;99.90
10051;DHT22;5065;46.942;7.432;2022-12-18T04:29:44;1.10;99.90
10051;DHT22;5065;46.942;7.432;2022-12-18T04:32:11;1.10;99.90
10051;DHT22;5065;46.942;7.432;2022-12-18T04:34:40;1.10;99.90
10051;DHT22;5065;46.942;7.432;2022-12-18T04:37:07;1.10;99.90
10051;DHT22;5065;46.942;7.432;2022-12-18T04:39:34;1.10;99.90
10051;DHT22;5065;46.942;7.432;2022-12-18T04:42:02;1.10;99.90
10051;DHT22;5065;46.942;7.432;2022-12-18T04:44:29;1.10;99.90
10051;DHT22;5065;46.942;7.432;2022-12-18T04:46:57;1.10;99.90
10051;DHT22;5065;46.942;7.432;2022-12-18T04:49:24;1.10;99.90
10051;DHT22;5065;46.942;7.432;2022-12-18T04:51:53;1.10;99.90
10051;DHT22;5065;46.942;7.432;2022-12-18T04:54:20;1.10;99.90
10051;DHT22;5065;46.942;7.432;2022-12-18T04:56:48;1.10;99.90
10051;DHT22;5065;46.942;7.432;2022-12-18T04:59:15;1.10;99.90
10051;DHT22;5065;46.942;7.432;2022-12-18T05:01:42;1.20;99.90
10051;DHT22;5065;46.942;7.432;2022-12-18T05:04:09;1.10;99.90
10051;DHT22;5065;46.942;7.432;2022-12-18T05:06:37;1.10;99.90
10051;DHT22;5065;46.942;7.432;2022-12-18T05:09:06;1.10;99.90
10051;DHT22;5065;46.942;7.432;2022-12-18T05:11:33;1.20;99.90
10051;DHT22;5065;46.942;7.432;2022-12-18T05:14:02;1.10;99.90
10051;DHT22;5065;46.942;7.432;2022-12-18T05:16:29;1.10;99.90
10051;DHT22;5065;46.942;7.432;2022-12-18T05:18:57;1.10;99.90
10051;DHT22;5065;46.942;7.432;2022-12-18T05:21:24;1.10;99.90
10051;DHT22;5065;46.942;7.432;2022-12-18T05:23:52;1.10;99.90
10051;DHT22;5065;46.942;7.432;2022-12-18T05:26:20;1.20;99.90
10051;DHT22;5065;46.942;7.432;2022-12-18T05:28:48;1.10;99.90
10051;DHT22;5065;46.942;7.432;2022-12-18T05:31:15;1.20;99.90
10051;DHT22;5065;46.942;7.432;2022-12-18T05:33:42;1.20;99.90
10051;DHT22;5065;46.942;7.432;2022-12-18T05:36:09;1.20;99.90
10051;DHT22;5065;46.942;7.432;2022-12-18T05:38:38;1.20;99.90
10051;DHT22;5065;46.942;7.432;2022-12-18T05:41:05;1.20;99.90
10051;DHT22;5065;46.942;7.432;2022-12-18T05:43:35;1.20;99.90
10051;DHT22;5065;46.942;7.432;2022-12-18T05:46:06;1.20;99.90
10051;DHT22;5065;46.942;7.432;2022-12-18T05:48:34;1.20;99.90
10051;DHT22;5065;46.942;7.432;2022-12-18T05:51:06;1.30;99.90
10051;DHT22;5065;46.942;7.432;2022-12-18T05:53:34;1.30;99.90
10051;DHT22;5065;46.942;7.432;2022-12-18T05:56:02;1.30;99.90
10051;DHT22;5065;46.942;7.432;2022-12-18T05:58:30;1.30;99.90
10051;DHT22;5065;46.942;7.432;2022-12-18T06:01:08;1.30;99.90
10051;DHT22;5065;46.942;7.432;2022-12-18T06:03:35;1.30;99.90
10051;DHT22;5065;46.942;7.432;2022-12-18T06:06:03;1.30;99.90
10051;DHT22;5065;46.942;7.432;2022-12-18T06:08:30;1.30;99.90
10051;DHT22;5065;46.942;7.432;2022-12-18T06:10:58;1.30;99.90
10051;DHT22;5065;46.942;7.432;2022-12-18T06:13:26;1.40;99.90
10051;DHT22;5065;46.942;7.432;2022-12-18T06:15:53;1.40;99.90
10051;DHT22;5065;46.942;7.432;2022-12-18T06:18:22;1.40;99.90
10051;DHT22;5065;46.942;7.432;2022-12-18T06:20:55;1.40;99.90
10051;DHT22;5065;46.942;7.432;2022-12-18T06:23:24;1.40;99.90
10051;DHT22;5065;46.942;7.432;2022-12-18T06:25:51;1.40;99.90
10051;DHT22;5065;46.942;7.432;2022-12-18T06:28:18;1.50;99.90
10051;DHT22;5065;46.942;7.432;2022-12-18T06:30:46;1.50;99.90
10051;DHT22;5065;46.942;7.432;2022-12-18T06:33:14;1.50;99.90
10051;DHT22;5065;46.942;7.432;2022-12-18T06:35:43;1.40;99.90
10051;DHT22;5065;46.942;7.432;2022-12-18T06:38:10;1.40;99.90
10051;DHT22;5065;46.942;7.432;2022-12-18T06:40:37;1.50;99.90
10051;DHT22;5065;46.942;7.432;2022-12-18T06:43:05;1.50;99.90
10051;DHT22;5065;46.942;7.432;2022-12-18T06:45:33;1.50;99.90
10051;DHT22;5065;46.942;7.432;2022-12-18T06:48:00;1.50;99.90
10051;DHT22;5065;46.942;7.432;2022-12-18T06:50:28;1.40;99.90
10051;DHT22;5065;46.942;7.432;2022-12-18T06:52:56;1.40;99.90
10051;DHT22;5065;46.942;7.432;2022-12-18T06:55:23;1.40;99.90
10051;DHT22;5065;46.942;7.432;2022-12-18T06:57:51;1.50;99.90
10051;DHT22;5065;46.942;7.432;2022-12-18T07:00:18;1.50;99.90
10051;DHT22;5065;46.942;7.432;2022-12-18T07:02:45;1.50;99.90
10051;DHT22;5065;46.942;7.432;2022-12-18T07:05:12;1.50;99.90
10051;DHT22;5065;46.942;7.432;2022-12-18T07:07:40;1.50;99.90
10051;DHT22;5065;46.942;7.432;2022-12-18T07:10:09;1.50;99.90
10051;DHT22;5065;46.942;7.432;2022-12-18T07:12:36;1.60;99.90
10051;DHT22;5065;46.942;7.432;2022-12-18T07:15:04;1.60;99.90
10051;DHT22;5065;46.942;7.432;2022-12-18T07:17:32;1.60;99.90
10051;DHT22;5065;46.942;7.432;2022-12-18T07:19:59;1.60;99.90
10051;DHT22;5065;46.942;7.432;2022-12-18T07:22:26;1.70;99.90
10051;DHT22;5065;46.942;7.432;2022-12-18T07:24:54;1.70;99.90
10051;DHT22;5065;46.942;7.432;2022-12-18T07:27:22;1.70;99.90
10051;DHT22;5065;46.942;7.432;2022-12-18T07:29:50;1.80;99.90
10051;DHT22;5065;46.942;7.432;2022-12-18T07:32:17;1.80;99.90
10051;DHT22;5065;46.942;7.432;2022-12-18T07:34:44;1.80;99.90
10051;DHT22;5065;46.942;7.432;2022-12-18T07:37:11;1.90;99.90
10051;DHT22;5065;46.942;7.432;2022-12-18T07:39:38;2.00;99.90
10051;DHT22;5065;46.942;7.432;2022-12-18T07:42:06;2.00;99.90
10051;DHT22;5065;46.942;7.432;2022-12-18T07:44:52;2.10;99.90
10051;DHT22;5065;46.942;7.432;2022-12-18T07:47:19;2.10;99.90
10051;DHT22;5065;46.942;7.432;2022-12-18T07:49:46;2.20;99.90
10051;DHT22;5065;46.942;7.432;2022-12-18T07:52:13;2.20;99.90
10051;DHT22;5065;46.942;7.432;2022-12-18T07:54:41;2.20;99.90
10051;DHT22;5065;46.942;7.432;2022-12-18T07:57:08;2.30;99.90
10051;DHT22;5065;46.942;7.432;2022-12-18T07:59:35;2.30;99.90
10051;DHT22;5065;46.942;7.432;2022-12-18T08:02:04;2.30;99.90
10051;DHT22;5065;46.942;7.432;2022-12-18T08:04:31;2.30;99.90
10051;DHT22;5065;46.942;7.432;2022-12-18T08:07:01;2.40;99.90
10051;DHT22;5065;46.942;7.432;2022-12-18T08:09:28;2.40;99.90
10051;DHT22;5065;46.942;7.432;2022-12-18T08:11:55;2.50;99.90
10051;DHT22;5065;46.942;7.432;2022-12-18T08:14:22;2.50;99.90
10051;DHT22;5065;46.942;7.432;2022-12-18T08:16:50;2.50;99.90
10051;DHT22;5065;46.942;7.432;2022-12-18T08:19:18;2.50;99.90
10051;DHT22;5065;46.942;7.432;2022-12-18T08:21:46;2.50;99.90
10051;DHT22;5065;46.942;7.432;2022-12-18T08:24:14;2.50;99.90
10051;DHT22;5065;46.942;7.432;2022-12-18T08:26:42;2.60;99.90
10051;DHT22;5065;46.942;7.432;2022-12-18T08:29:10;2.60;99.90
10051;DHT22;5065;46.942;7.432;2022-12-18T08:31:37;2.60;99.90
10051;DHT22;5065;46.942;7.432;2022-12-18T08:34:04;2.60;99.90
10051;DHT22;5065;46.942;7.432;2022-12-18T08:36:34;2.60;99.90
10051;DHT22;5065;46.942;7.432;2022-12-18T08:39:01;2.60;99.90
10051;DHT22;5065;46.942;7.432;2022-12-18T08:41:28;2.60;99.90
10051;DHT22;5065;46.942;7.432;2022-12-18T08:43:56;2.60;99.90
10051;DHT22;5065;46.942;7.432;2022-12-18T08:46:46;2.60;99.90
10051;DHT22;5065;46.942;7.432;2022-12-18T08:49:13;2.60;99.90
10051;DHT22;5065;46.942;7.432;2022-12-18T08:51:42;2.60;99.90
10051;DHT22;5065;46.942;7.432;2022-12-18T08:54:11;2.60;99.90
10051;DHT22;5065;46.942;7.432;2022-12-18T08:56:38;2.50;99.90
10051;DHT22;5065;46.942;7.432;2022-12-18T08:59:05;2.60;99.90
10051;DHT22;5065;46.942;7.432;2022-12-18T09:01:32;2.60;99.90
10051;DHT22;5065;46.942;7.432;2022-12-18T09:03:59;2.70;99.90
10051;DHT22;5065;46.942;7.432;2022-12-18T09:06:27;2.60;99.90
10051;DHT22;5065;46.942;7.432;2022-12-18T09:08:56;2.60;99.90
10051;DHT22;5065;46.942;7.432;2022-12-18T09:11:25;2.60;99.90
10051;DHT22;5065;46.942;7.432;2022-12-18T09:13:53;2.50;99.90
10051;DHT22;5065;46.942;7.432;2022-12-18T09:16:22;2.40;99.90
10051;DHT22;5065;46.942;7.432;2022-12-18T09:18:49;2.30;99.90
10051;DHT22;5065;46.942;7.432;2022-12-18T09:21:18;2.30;99.90
10051;DHT22;5065;46.942;7.432;2022-12-18T09:23:50;2.40;99.90
10051;DHT22;5065;46.942;7.432;2022-12-18T09:26:19;2.40;99.90
10051;DHT22;5065;46.942;7.432;2022-12-18T09:28:46;2.40;99.90
10051;DHT22;5065;46.942;7.432;2022-12-18T09:31:14;2.40;99.90
10051;DHT22;5065;46.942;7.432;2022-12-18T09:33:41;2.50;99.90
10051;DHT22;5065;46.942;7.432;2022-12-18T09:36:11;2.60;99.90
10051;DHT22;5065;46.942;7.432;2022-12-18T09:38:39;2.70;99.90
10051;DHT22;5065;46.942;7.432;2022-12-18T09:41:20;2.70;99.90
10051;DHT22;5065;46.942;7.432;2022-12-18T09:43:52;2.80;99.90
10051;DHT22;5065;46.942;7.432;2022-12-18T09:46:25;2.90;99.90
10051;DHT22;5065;46.942;7.432;2022-12-18T09:48:57;2.90;99.90
10051;DHT22;5065;46.942;7.432;2022-12-18T09:51:29;3.00;99.90
10051;DHT22;5065;46.942;7.432;2022-12-18T09:54:03;3.00;99.90
10051;DHT22;5065;46.942;7.432;2022-12-18T09:56:39;3.00;99.90
10051;DHT22;5065;46.942;7.432;2022-12-18T09:59:17;3.00;99.90
10051;DHT22;5065;46.942;7.432;2022-12-18T10:01:45;3.10;99.90
10051;DHT22;5065;46.942;7.432;2022-12-18T10:04:13;3.10;99.90
10051;DHT22;5065;46.942;7.432;2022-12-18T10:06:44;3.20;99.90
10051;DHT22;5065;46.942;7.432;2022-12-18T10:09:21;3.20;99.90
10051;DHT22;5065;46.942;7.432;2022-12-18T10:11:58;3.20;99.90
10051;DHT22;5065;46.942;7.432;2022-12-18T10:14:35;3.30;99.90
10051;DHT22;5065;46.942;7.432;2022-12-18T10:17:13;3.30;99.90
10051;DHT22;5065;46.942;7.432;2022-12-18T10:19:46;3.30;99.90
10051;DHT22;5065;46.942;7.432;2022-12-18T10:25:13;3.40;99.90
10051;DHT22;5065;46.942;7.432;2022-12-18T10:27:42;3.50;99.90
10051;DHT22;5065;46.942;7.432;2022-12-18T10:30:13;3.50;99.90
10051;DHT22;5065;46.942;7.432;2022-12-18T10:32:42;3.50;99.90
10051;DHT22;5065;46.942;7.432;2022-12-18T10:35:17;3.50;99.90
10051;DHT22;5065;46.942;7.432;2022-12-18T10:38:00;3.60;99.90
10051;DHT22;5065;46.942;7.432;2022-12-18T10:40:28;3.60;99.90
10051;DHT22;5065;46.942;7.432;2022-12-18T10:43:15;3.70;99.90
10051;DHT22;5065;46.942;7.432;2022-12-18T10:45:43;3.70;99.90
10051;DHT22;5065;46.942;7.432;2022-12-18T10:48:24;3.70;99.90
10051;DHT22;5065;46.942;7.432;2022-12-18T10:50:52;3.60;99.90
10051;DHT22;5065;46.942;7.432;2022-12-18T10:53:21;3.60;99.90
10051;DHT22;5065;46.942;7.432;2022-12-18T10:55:49;3.60;99.90
10051;DHT22;5065;46.942;7.432;2022-12-18T10:58:25;3.60;99.90
10051;DHT22;5065;46.942;7.432;2022-12-18T11:01:08;3.70;99.90
10051;DHT22;5065;46.942;7.432;2022-12-18T11:03:38;3.70;99.90
10051;DHT22;5065;46.942;7.432;2022-12-18T11:06:08;3.70;99.90
10051;DHT22;5065;46.942;7.432;2022-12-18T11:08:37;3.70;99.90
10051;DHT22;5065;46.942;7.432;2022-12-18T11:11:09;3.70;99.90
10051;DHT22;5065;46.942;7.432;2022-12-18T11:13:58;3.80;99.90
10051;DHT22;5065;46.942;7.432;2022-12-18T11:16:26;3.80;99.90
10051;DHT22;5065;46.942;7.432;2022-12-18T11:18:55;3.80;99.90
10051;DHT22;5065;46.942;7.432;2022-12-18T11:21:39;3.80;99.90
10051;DHT22;5065;46.942;7.432;2022-12-18T11:24:17;3.80;99.90
10051;DHT22;5065;46.942;7.432;2022-12-18T11:26:46;3.80;99.90
10051;DHT22;5065;46.942;7.432;2022-12-18T11:29:19;3.70;99.90
10051;DHT22;5065;46.942;7.432;2022-12-18T11:31:49;3.70;99.90
10051;DHT22;5065;46.942;7.432;2022-12-18T11:34:21;3.70;99.90
10051;DHT22;5065;46.942;7.432;2022-12-18T11:36:49;3.70;99.90
10051;DHT22;5065;46.942;7.432;2022-12-18T11:39:19;3.80;99.90
10051;DHT22;5065;46.942;7.432;2022-12-18T11:41:52;3.80;99.90
10051;DHT22;5065;46.942;7.432;2022-12-18T11:44:44;3.80;99.90
10051;DHT22;5065;46.942;7.432;2022-12-18T11:47:21;3.90;99.90
10051;DHT22;5065;46.942;7.432;2022-12-18T11:49:51;4.00;99.90
10051;DHT22;5065;46.942;7.432;2022-12-18T11:52:22;4.00;99.90
10051;DHT22;5065;46.942;7.432;2022-12-18T11:54:56;4.00;99.90
10051;DHT22;5065;46.942;7.432;2022-12-18T11:57:33;4.00;99.90
10051;DHT22;5065;46.942;7.432;2022-12-18T12:00:12;4.00;99.90
10051;DHT22;5065;46.942;7.432;2022-12-18T12:05:41;4.00;99.90
10051;DHT22;5065;46.942;7.432;2022-12-18T12:08:18;4.00;99.90
10051;DHT22;5065;46.942;7.432;2022-12-18T12:10:56;4.00;99.90
10051;DHT22;5065;46.942;7.432;2022-12-18T12:13:38;4.00;99.90
10051;DHT22;5065;46.942;7.432;2022-12-18T12:16:16;3.90;99.90
10051;DHT22;5065;46.942;7.432;2022-12-18T12:18:55;3.70;99.90
10051;DHT22;5065;46.942;7.432;2022-12-18T12:21:32;3.50;99.90
10051;DHT22;5065;46.942;7.432;2022-12-18T12:24:09;3.50;99.90
10051;DHT22;5065;46.942;7.432;2022-12-18T12:26:44;3.30;99.90
10051;DHT22;5065;46.942;7.432;2022-12-18T12:29:26;3.30;99.90
10051;DHT22;5065;46.942;7.432;2022-12-18T12:32:07;3.20;99.90
10051;DHT22;5065;46.942;7.432;2022-12-18T12:34:46;3.20;99.90
10051;DHT22;5065;46.942;7.432;2022-12-18T12:37:23;3.10;99.90
10051;DHT22;5065;46.942;7.432;2022-12-18T12:39:54;3.00;99.90
10051;DHT22;5065;46.942;7.432;2022-12-18T12:42:27;3.00;99.90
10051;DHT22;5065;46.942;7.432;2022-12-18T12:45:18;2.90;99.90
10051;DHT22;5065;46.942;7.432;2022-12-18T12:47:49;2.80;99.90
10051;DHT22;5065;46.942;7.432;2022-12-18T12:50:19;2.80;99.90
10051;DHT22;5065;46.942;7.432;2022-12-18T12:52:50;2.70;99.90
10051;DHT22;5065;46.942;7.432;2022-12-18T12:55:21;2.70;99.90
10051;DHT22;5065;46.942;7.432;2022-12-18T12:57:57;2.80;99.90
10051;DHT22;5065;46.942;7.432;2022-12-18T13:00:27;2.80;99.90
10051;DHT22;5065;46.942;7.432;2022-12-18T13:03:06;2.80;99.90
10051;DHT22;5065;46.942;7.432;2022-12-18T13:05:40;2.80;99.90
10051;DHT22;5065;46.942;7.432;2022-12-18T13:08:12;2.70;99.90
10051;DHT22;5065;46.942;7.432;2022-12-18T13:10:49;2.70;99.90
10051;DHT22;5065;46.942;7.432;2022-12-18T13:13:48;2.70;99.90
10051;DHT22;5065;46.942;7.432;2022-12-18T13:16:18;2.70;99.90
10051;DHT22;5065;46.942;7.432;2022-12-18T13:18:53;2.80;99.90
10051;DHT22;5065;46.942;7.432;2022-12-18T13:21:25;2.80;99.90
10051;DHT22;5065;46.942;7.432;2022-12-18T13:23:54;2.80;99.90
10051;DHT22;5065;46.942;7.432;2022-12-18T13:26:31;2.80;99.90
10051;DHT22;5065;46.942;7.432;2022-12-18T13:29:02;2.80;99.90
10051;DHT22;5065;46.942;7.432;2022-12-18T13:34:36;2.70;99.90
10051;DHT22;5065;46.942;7.432;2022-12-18T13:43:39;2.60;99.90
10051;DHT22;5065;46.942;7.432;2022-12-18T13:46:20;2.60;99.90
10051;DHT22;5065;46.942;7.432;2022-12-18T13:49:03;2.50;99.90
10051;DHT22;5065;46.942;7.432;2022-12-18T13:51:34;2.50;99.90
10051;DHT22;5065;46.942;7.432;2022-12-18T13:54:06;2.50;99.90
10051;DHT22;5065;46.942;7.432;2022-12-18T13:56:44;2.50;99.90
10051;DHT22;5065;46.942;7.432;2022-12-18T13:59:18;2.50;99.90
10051;DHT22;5065;46.942;7.432;2022-12-18T14:01:47;2.40;99.90
10051;DHT22;5065;46.942;7.432;2022-12-18T14:04:23;2.40;99.90
10051;DHT22;5065;46.942;7.432;2022-12-18T14:06:56;2.40;99.90
10051;DHT22;5065;46.942;7.432;2022-12-18T14:09:26;2.30;99.90
10051;DHT22;5065;46.942;7.432;2022-12-18T14:11:57;2.30;99.90
10051;DHT22;5065;46.942;7.432;2022-12-18T14:14:43;2.40;99.90
10051;DHT22;5065;46.942;7.432;2022-12-18T14:17:11;2.30;99.90
10051;DHT22;5065;46.942;7.432;2022-12-18T14:19:42;2.30;99.90
10051;DHT22;5065;46.942;7.432;2022-12-18T14:22:18;2.30;99.90
10051;DHT22;5065;46.942;7.432;2022-12-18T14:24:45;2.20;99.90
10051;DHT22;5065;46.942;7.432;2022-12-18T14:27:20;2.30;99.90
10051;DHT22;5065;46.942;7.432;2022-12-18T14:29:49;2.30;99.90
10051;DHT22;5065;46.942;7.432;2022-12-18T14:32:17;2.30;99.90
10051;DHT22;5065;46.942;7.432;2022-12-18T14:34:47;2.30;99.90
10051;DHT22;5065;46.942;7.432;2022-12-18T14:37:17;2.30;99.90
10051;DHT22;5065;46.942;7.432;2022-12-18T14:39:54;2.30;99.90
10051;DHT22;5065;46.942;7.432;2022-12-18T14:42:22;2.30;99.90
10051;DHT22;5065;46.942;7.432;2022-12-18T14:47:54;2.30;99.90
10051;DHT22;5065;46.942;7.432;2022-12-18T14:50:21;2.20;99.90
10051;DHT22;5065;46.942;7.432;2022-12-18T14:52:50;2.20;99.90
10051;DHT22;5065;46.942;7.432;2022-12-18T14:55:19;2.20;99.90
10051;DHT22;5065;46.942;7.432;2022-12-18T14:57:49;2.20;99.90
10051;DHT22;5065;46.942;7.432;2022-12-18T15:00:20;2.10;99.90
10051;DHT22;5065;46.942;7.432;2022-12-18T15:02:51;2.20;99.90
10051;DHT22;5065;46.942;7.432;2022-12-18T15:05:24;2.10;99.90
10051;DHT22;5065;46.942;7.432;2022-12-18T15:07:56;2.10;99.90
10051;DHT22;5065;46.942;7.432;2022-12-18T15:10:29;2.00;99.90
10051;DHT22;5065;46.942;7.432;2022-12-18T15:13:09;1.90;99.90
10051;DHT22;5065;46.942;7.432;2022-12-18T15:15:48;1.90;99.90
10051;DHT22;5065;46.942;7.432;2022-12-18T15:18:16;1.80;99.90
10051;DHT22;5065;46.942;7.432;2022-12-18T15:20:47;1.90;99.90
10051;DHT22;5065;46.942;7.432;2022-12-18T15:23:21;1.90;99.90
10051;DHT22;5065;46.942;7.432;2022-12-18T15:25:55;1.90;99.90
10051;DHT22;5065;46.942;7.432;2022-12-18T15:28:25;1.90;99.90
10051;DHT22;5065;46.942;7.432;2022-12-18T15:31:23;1.80;99.90
10051;DHT22;5065;46.942;7.432;2022-12-18T15:34:14;1.80;99.90
10051;DHT22;5065;46.942;7.432;2022-12-18T15:36:50;1.80;99.90
10051;DHT22;5065;46.942;7.432;2022-12-18T15:39:19;1.80;99.90
10051;DHT22;5065;46.942;7.432;2022-12-18T15:41:47;1.70;99.90
10051;DHT22;5065;46.942;7.432;2022-12-18T15:44:28;1.80;99.90
10051;DHT22;5065;46.942;7.432;2022-12-18T15:46:55;1.80;99.90
10051;DHT22;5065;46.942;7.432;2022-12-18T15:49:23;1.80;99.90
10051;DHT22;5065;46.942;7.432;2022-12-18T15:51:53;1.80;99.90
10051;DHT22;5065;46.942;7.432;2022-12-18T15:54:24;1.70;99.90
10051;DHT22;5065;46.942;7.432;2022-12-18T15:57:05;1.50;99.90
10051;DHT22;5065;46.942;7.432;2022-12-18T15:59:55;1.50;99.90
10051;DHT22;5065;46.942;7.432;2022-12-18T16:02:26;1.40;99.90
10051;DHT22;5065;46.942;7.432;2022-12-18T16:04:54;1.30;99.90
10051;DHT22;5065;46.942;7.432;2022-12-18T16:07:21;1.20;99.90
10051;DHT22;5065;46.942;7.432;2022-12-18T16:09:54;1.10;99.90
10051;DHT22;5065;46.942;7.432;2022-12-18T16:12:24;1.10;99.90
10051;DHT22;5065;46.942;7.432;2022-12-18T16:14:52;1.10;99.90
10051;DHT22;5065;46.942;7.432;2022-12-18T16:17:19;1.10;99.90
10051;DHT22;5065;46.942;7.432;2022-12-18T16:19:47;1.10;99.90
10051;DHT22;5065;46.942;7.432;2022-12-18T16:22:19;1.10;99.90
10051;DHT22;5065;46.942;7.432;2022-12-18T16:24:48;1.10;99.90
10051;DHT22;5065;46.942;7.432;2022-12-18T16:27:17;1.00;99.90
10051;DHT22;5065;46.942;7.432;2022-12-18T16:29:45;1.10;99.90
10051;DHT22;5065;46.942;7.432;2022-12-18T16:32:14;1.10;99.90
10051;DHT22;5065;46.942;7.432;2022-12-18T16:34:41;1.10;99.90
10051;DHT22;5065;46.942;7.432;2022-12-18T16:37:11;1.10;99.90
10051;DHT22;5065;46.942;7.432;2022-12-18T16:39:41;1.10;99.90
10051;DHT22;5065;46.942;7.432;2022-12-18T16:42:10;1.20;99.90
10051;DHT22;5065;46.942;7.432;2022-12-18T16:44:41;1.20;99.90
10051;DHT22;5065;46.942;7.432;2022-12-18T16:47:11;1.10;99.90
10051;DHT22;5065;46.942;7.432;2022-12-18T16:49:39;1.20;99.90